createdAt,value
2022-09-12T00:01:30.369Z,101559.72
2022-09-12T00:04:01.931Z,101556.72
2022-09-12T00:06:32.248Z,101549.47
2022-09-12T00:09:04.998Z,101525.66
2022-09-12T00:11:33.487Z,101549.88
2022-09-12T00:14:02.866Z,101550.59
2022-09-12T00:16:33.860Z,101548.72
2022-09-12T00:19:02.540Z,101558.19
2022-09-12T00:21:31.055Z,101556.34
2022-09-12T00:24:00.715Z,101552.53
2022-09-12T00:26:28.986Z,101552.72
2022-09-12T00:28:57.214Z,101550.09
2022-09-12T00:31:27.743Z,101548.34
2022-09-12T00:33:58.074Z,101544.25
2022-09-12T00:36:28.680Z,101545.94
2022-09-12T00:38:57.454Z,101538.91
2022-09-12T00:41:31.097Z,101547.00
2022-09-12T00:44:01.994Z,101541.59
2022-09-12T00:46:40.055Z,101540.63
2022-09-12T00:49:15.240Z,101539.47
2022-09-12T00:51:48.436Z,101538.63
2022-09-12T00:54:22.250Z,101538.28
2022-09-12T00:56:58.310Z,101534.47
2022-09-12T00:59:32.383Z,101529.22
2022-09-12T01:02:00.762Z,101525.72
2022-09-12T01:04:30.258Z,101526.72
2022-09-12T01:07:00.043Z,101521.78
2022-09-12T01:09:28.292Z,101518.22
2022-09-12T01:11:59.406Z,101517.44
2022-09-12T01:14:27.781Z,101522.38
2022-09-12T01:16:56.086Z,101514.81
2022-09-12T01:20:40.997Z,101515.34
2022-09-12T01:23:39.758Z,101520.91
2022-09-12T01:26:41.577Z,101516.63
2022-09-12T01:29:41.570Z,101509.72
2022-09-12T01:32:20.343Z,101512.06
2022-09-12T01:34:53.910Z,101508.53
2022-09-12T01:37:34.190Z,101508.22
2022-09-12T01:40:14.184Z,101493.13
2022-09-12T01:42:48.302Z,101494.91
2022-09-12T01:45:22.319Z,101481.72
2022-09-12T01:47:58.843Z,101468.44
2022-09-12T01:50:33.181Z,101481.41
2022-09-12T01:53:06.259Z,101485.84
2022-09-12T01:55:39.547Z,101484.91
2022-09-12T01:58:13.235Z,101480.41
2022-09-12T02:00:48.565Z,101484.56
2022-09-12T02:03:22.813Z,101470.38
2022-09-12T02:05:57.134Z,101466.25
2022-09-12T02:08:32.362Z,101467.25
2022-09-12T02:11:08.147Z,101462.03
2022-09-12T02:13:43.335Z,101463.56
2022-09-12T02:16:18.875Z,101457.78
2022-09-12T02:18:55.026Z,101450.09
2022-09-12T02:21:25.616Z,101458.09
2022-09-12T02:23:59.376Z,101447.00
2022-09-12T02:26:36.345Z,101447.00
2022-09-12T02:29:05.791Z,101449.56
2022-09-12T02:31:41.962Z,101442.31
2022-09-12T02:34:28.656Z,101437.63
2022-09-12T02:37:08.043Z,101447.72
2022-09-12T02:39:37.032Z,101434.59
2022-09-12T02:42:06.041Z,101441.78
2022-09-12T02:44:36.009Z,101440.09
2022-09-12T02:47:10.881Z,101434.53
2022-09-12T02:49:40.836Z,101409.81
2022-09-12T02:52:09.116Z,101432.56
2022-09-12T02:54:38.225Z,101441.13
2022-09-12T02:57:20.634Z,101430.69
2022-09-12T02:59:53.648Z,101429.88
2022-09-12T03:02:33.478Z,101429.56
2022-09-12T03:05:20.555Z,101419.22
2022-09-12T03:08:24.899Z,101417.25
2022-09-12T03:11:13.965Z,101412.63
2022-09-12T03:13:55.531Z,101425.06
2022-09-12T03:16:34.626Z,101418.69
2022-09-12T03:19:11.071Z,101418.69
2022-09-12T03:21:54.454Z,101411.53
2022-09-12T03:24:32.065Z,101406.69
2022-09-12T03:27:09.573Z,101411.50
2022-09-12T03:29:40.209Z,101409.88
2022-09-12T03:32:08.454Z,101403.72
2022-09-12T03:34:36.695Z,101406.53
2022-09-12T03:37:06.955Z,101411.53
2022-09-12T03:39:35.351Z,101408.91
2022-09-12T03:42:03.592Z,101413.16
2022-09-12T03:44:31.850Z,101405.25
2022-09-12T03:47:00.187Z,101413.16
2022-09-12T03:49:28.418Z,101410.16
2022-09-12T03:51:56.600Z,101410.22
2022-09-12T03:54:26.386Z,101414.88
2022-09-12T03:56:54.619Z,101408.72
2022-09-12T03:59:22.805Z,101405.19
2022-09-12T04:01:51.144Z,101409.16
2022-09-12T04:04:19.380Z,101408.00
2022-09-12T04:06:47.615Z,101409.03
2022-09-12T04:09:15.876Z,101406.91
2022-09-12T04:11:45.518Z,101409.97
2022-09-12T04:14:13.779Z,101398.41
2022-09-12T04:16:41.998Z,101401.16
2022-09-12T04:19:12.503Z,101407.19
2022-09-12T04:21:41.275Z,101396.91
2022-09-12T04:24:09.522Z,101396.19
2022-09-12T04:26:37.976Z,101400.06
2022-09-12T04:29:07.592Z,101411.25
2022-09-12T04:31:35.777Z,101409.41
2022-09-12T04:34:04.720Z,101399.28
2022-09-12T04:36:33.480Z,101405.53
2022-09-12T04:39:02.800Z,101402.00
2022-09-12T04:41:33.470Z,101407.19
2022-09-12T04:44:03.556Z,101406.06
2022-09-12T04:46:36.166Z,101405.03
2022-09-12T04:49:04.516Z,101413.09
2022-09-12T04:51:35.086Z,101410.06
2022-09-12T04:54:06.933Z,101405.56
2022-09-12T04:56:39.586Z,101342.25
2022-09-12T04:59:08.682Z,101403.44
2022-09-12T05:01:38.432Z,101409.63
2022-09-12T05:04:07.176Z,101408.78
2022-09-12T05:06:38.230Z,101411.59
2022-09-12T05:09:09.174Z,101408.25
2022-09-12T05:12:03.893Z,101407.59
2022-09-12T05:14:28.922Z,101408.06
2022-09-12T05:17:00.794Z,101389.56
2022-09-12T05:19:30.082Z,101392.31
2022-09-12T05:21:58.965Z,101386.78
2022-09-12T05:24:27.378Z,101381.28
2022-09-12T05:26:55.802Z,101381.00
2022-09-12T05:29:25.165Z,101381.31
2022-09-12T05:31:53.763Z,101374.25
2022-09-12T05:34:23.745Z,101373.81
2022-09-12T05:36:51.997Z,101368.41
2022-09-12T05:39:20.382Z,101366.63
2022-09-12T05:41:48.803Z,101372.78
2022-09-12T05:44:17.842Z,101377.78
2022-09-12T05:46:50.373Z,101391.84
2022-09-12T05:49:18.809Z,101368.66
2022-09-12T05:51:48.382Z,101394.22
2022-09-12T05:54:20.409Z,101390.34
2022-09-12T05:56:49.959Z,101404.50
2022-09-12T05:59:20.629Z,101386.56
2022-09-12T06:01:49.490Z,101384.94
2022-09-12T06:04:18.184Z,101386.81
2022-09-12T06:06:48.839Z,101388.69
2022-09-12T06:09:17.909Z,101387.44
2022-09-12T06:11:47.260Z,101381.84
2022-09-12T06:14:18.034Z,101386.94
2022-09-12T06:16:47.136Z,101392.38
2022-09-12T06:19:18.082Z,101382.59
2022-09-12T06:21:49.487Z,101351.88
2022-09-12T06:24:18.608Z,101389.06
2022-09-12T06:26:47.361Z,101392.84
2022-09-12T06:29:16.848Z,101389.88
2022-09-12T06:31:46.018Z,101392.19
2022-09-12T06:34:17.130Z,101393.22
2022-09-12T06:36:49.627Z,101390.97
2022-09-12T06:39:20.534Z,101394.22
2022-09-12T06:41:49.812Z,101385.00
2022-09-12T06:44:21.408Z,101386.41
2022-09-12T06:46:50.332Z,101395.69
2022-09-12T06:49:18.691Z,101394.88
2022-09-12T06:51:46.885Z,101399.69
2022-09-12T06:54:18.140Z,101395.34
2022-09-12T06:56:46.664Z,101406.44
2022-09-12T06:59:15.085Z,101401.47
2022-09-12T07:01:43.492Z,101405.22
2022-09-12T07:04:12.602Z,101404.47
2022-09-12T07:06:44.053Z,101413.38
2022-09-12T07:09:17.356Z,101414.88
2022-09-12T07:11:47.286Z,101411.97
2022-09-12T07:14:16.811Z,101413.84
2022-09-12T07:16:45.393Z,101414.06
2022-09-12T07:19:13.725Z,101421.44
2022-09-12T07:21:42.132Z,101419.00
2022-09-12T07:24:11.784Z,101411.13
2022-09-12T07:26:42.639Z,101413.22
2022-09-12T07:32:06.698Z,101423.38
2022-09-12T07:34:35.738Z,101419.03
2022-09-12T07:37:04.056Z,101411.56
2022-09-12T07:39:32.423Z,101414.19
2022-09-12T07:42:02.071Z,101419.41
2022-09-12T07:44:30.430Z,101420.94
2022-09-12T07:46:58.664Z,101422.34
2022-09-12T07:49:26.897Z,101426.44
2022-09-12T07:51:55.143Z,101429.38
2022-09-12T07:54:23.873Z,101426.59
2022-09-12T07:56:52.107Z,101424.41
2022-09-12T07:59:48.348Z,101435.56
2022-09-12T08:02:17.177Z,101422.16
2022-09-12T08:04:48.306Z,101433.50
2022-09-12T08:07:18.364Z,101440.38
2022-09-12T08:09:47.315Z,101430.63
2022-09-12T08:12:16.503Z,101431.41
2022-09-12T08:14:46.139Z,101439.53
2022-09-12T08:17:14.437Z,101427.84
2022-09-12T08:19:42.731Z,101384.22
2022-09-12T08:22:11.241Z,101432.16
2022-09-12T08:24:40.527Z,101354.88
2022-09-12T08:27:09.205Z,101423.31
2022-09-12T08:29:37.425Z,101421.81
2022-09-12T08:32:07.137Z,101427.69
2022-09-12T08:34:35.451Z,101408.16
2022-09-12T08:37:04.118Z,101425.28
2022-09-12T08:39:33.051Z,101418.22
2022-09-12T08:42:04.044Z,101427.69
2022-09-12T08:45:06.997Z,101425.41
2022-09-12T08:47:40.267Z,101421.88
2022-09-12T08:50:17.757Z,101406.50
2022-09-12T08:52:55.970Z,101417.16
2022-09-12T08:55:37.892Z,101420.66
2022-09-12T08:58:16.117Z,101425.19
2022-09-12T09:00:54.743Z,101432.28
2022-09-12T09:03:50.966Z,101422.63
2022-09-12T09:06:36.211Z,101418.75
2022-09-12T09:09:13.591Z,101422.47
2022-09-12T09:11:56.993Z,101397.44
2022-09-12T09:15:09.850Z,101422.31
2022-09-12T09:17:43.081Z,101408.38
2022-09-12T09:20:30.522Z,101402.03
2022-09-12T09:23:03.466Z,101412.53
2022-09-12T09:25:44.969Z,101413.81
2022-09-12T09:28:18.547Z,101408.25
2022-09-12T09:30:47.592Z,101399.34
2022-09-12T09:33:23.651Z,101386.53
2022-09-12T09:36:02.449Z,101393.22
2022-09-12T09:38:44.131Z,101392.06
2022-09-12T09:41:28.060Z,101388.09
2022-09-12T09:43:57.349Z,101377.88
2022-09-12T09:46:25.969Z,101373.72
2022-09-12T09:48:54.931Z,101372.63
2022-09-12T09:51:33.497Z,101369.69
2022-09-12T09:54:07.123Z,101378.03
2022-09-12T09:56:40.047Z,101373.41
2022-09-12T09:59:12.829Z,101372.53
2022-09-12T10:01:49.108Z,101366.25
2022-09-12T10:04:23.454Z,101372.09
2022-09-12T10:06:56.228Z,101364.63
2022-09-12T10:09:28.126Z,101354.00
2022-09-12T10:11:58.688Z,101362.22
2022-09-12T10:14:35.016Z,101355.53
2022-09-12T10:17:06.832Z,101349.44
2022-09-12T10:19:38.153Z,101340.84
2022-09-12T10:22:08.711Z,101343.44
2022-09-12T10:24:38.900Z,101358.47
2022-09-12T10:27:15.985Z,101328.19
2022-09-12T10:29:49.409Z,101332.84
2022-09-12T10:32:30.618Z,101322.41
2022-09-12T10:35:02.766Z,101285.69
2022-09-12T10:37:36.079Z,101366.16
2022-09-12T10:40:09.298Z,101351.22
2022-09-12T10:42:52.561Z,101350.09
2022-09-12T10:45:29.048Z,101340.88
2022-09-12T10:48:04.160Z,101343.16
2022-09-12T10:50:41.691Z,101365.03
2022-09-12T10:53:21.815Z,101360.19
2022-09-12T10:56:07.739Z,101359.72
2022-09-12T10:59:07.841Z,101366.97
2022-09-12T11:01:42.122Z,101328.31
2022-09-12T11:04:30.941Z,101356.22
2022-09-12T11:07:27.052Z,101360.28
2022-09-12T11:10:04.877Z,101357.72
2022-09-12T11:12:42.157Z,101341.16
2022-09-12T11:15:33.184Z,101340.81
2022-09-12T11:18:13.439Z,101340.75
2022-09-12T11:21:20.663Z,101336.72
2022-09-12T11:24:33.147Z,101341.47
2022-09-12T11:27:22.922Z,101333.44
2022-09-12T11:29:56.106Z,101337.47
2022-09-12T11:32:57.122Z,101333.31
2022-09-12T11:35:27.536Z,101330.28
2022-09-12T11:38:46.867Z,101321.56
2022-09-12T11:41:22.730Z,101333.88
2022-09-12T11:43:58.230Z,101331.69
2022-09-12T11:46:36.254Z,101340.50
2022-09-12T11:49:18.278Z,101324.81
2022-09-12T11:51:53.607Z,101323.97
2022-09-12T11:54:28.561Z,101326.34
2022-09-12T11:57:09.913Z,101318.28
2022-09-12T11:59:46.805Z,101307.94
2022-09-12T12:02:27.739Z,101283.50
2022-09-12T12:05:07.090Z,101302.56
2022-09-12T12:07:45.650Z,101295.94
2022-09-12T12:10:28.858Z,101287.81
2022-09-12T12:12:58.643Z,101291.72
2022-09-12T12:15:29.173Z,101295.78
2022-09-12T12:18:06.392Z,101289.69
2022-09-12T12:20:35.618Z,101250.00
2022-09-12T12:23:04.571Z,101291.69
2022-09-12T12:25:52.811Z,101294.22
2022-09-12T12:28:59.365Z,101289.47
2022-09-12T12:31:29.172Z,101274.28
2022-09-12T12:34:24.027Z,101267.44
2022-09-12T12:36:52.279Z,101280.41
2022-09-12T12:40:05.043Z,101264.16
2022-09-12T12:43:06.141Z,101268.72
2022-09-12T12:46:10.870Z,101270.19
2022-09-12T12:48:59.922Z,101262.41
2022-09-12T12:51:58.492Z,101258.03
2022-09-12T12:54:53.628Z,101269.16
2022-09-12T12:57:47.472Z,101275.34
2022-09-12T13:00:35.293Z,101275.41
2022-09-12T13:03:12.111Z,101265.69
2022-09-12T13:05:46.006Z,101263.66
2022-09-12T13:08:31.576Z,101254.63
2022-09-12T13:11:03.011Z,101249.72
2022-09-12T13:13:37.634Z,101248.66
2022-09-12T13:16:06.411Z,101237.78
2022-09-12T13:18:44.571Z,101236.34
2022-09-12T13:21:17.858Z,101229.50
2022-09-12T13:23:47.765Z,101232.53
2022-09-12T13:26:26.276Z,101215.88
2022-09-12T13:29:17.879Z,101211.97
2022-09-12T13:31:48.496Z,101216.47
2022-09-12T13:34:21.976Z,101210.06
2022-09-12T13:37:27.628Z,101193.09
2022-09-12T13:40:07.437Z,101199.41
2022-09-12T13:42:43.568Z,101197.91
2022-09-12T13:45:20.677Z,101185.97
2022-09-12T13:47:56.606Z,101185.00
2022-09-12T13:50:29.333Z,101177.81
2022-09-12T13:53:02.453Z,101181.91
2022-09-12T13:55:33.993Z,101173.41
2022-09-12T13:58:04.821Z,101188.66
2022-09-12T14:00:35.426Z,101193.59
2022-09-12T14:03:45.247Z,101162.75
2022-09-12T14:06:14.676Z,101174.34
2022-09-12T14:08:45.087Z,101178.50
2022-09-12T14:11:22.347Z,101172.94
2022-09-12T14:13:52.650Z,101173.44
2022-09-12T14:16:23.422Z,101136.63
2022-09-12T14:18:52.579Z,101178.91
2022-09-12T14:21:34.978Z,101175.66
2022-09-12T14:24:08.592Z,101171.44
2022-09-12T14:26:40.240Z,101169.31
2022-09-12T14:29:10.105Z,101174.69
2022-09-12T14:31:41.276Z,101169.78
2022-09-12T14:34:13.605Z,101168.31
2022-09-12T14:36:46.361Z,101163.44
2022-09-12T14:39:30.118Z,101154.19
2022-09-12T14:42:08.477Z,101162.53
2022-09-12T14:44:37.715Z,101153.56
2022-09-12T14:47:21.174Z,101166.75
2022-09-12T14:49:51.647Z,101164.31
2022-09-12T14:52:26.344Z,101156.66
2022-09-12T14:55:01.958Z,101160.47
2022-09-12T14:57:39.329Z,101145.44
2022-09-12T15:00:20.968Z,101131.28
2022-09-12T15:02:50.545Z,101134.53
2022-09-12T15:05:23.941Z,101153.72
2022-09-12T15:08:01.223Z,101146.31
2022-09-12T15:10:35.428Z,101155.47
2022-09-12T15:13:19.412Z,101153.94
2022-09-12T15:15:51.140Z,101142.63
2022-09-12T15:18:21.105Z,101129.59
2022-09-12T15:20:52.818Z,101046.47
2022-09-12T15:23:33.130Z,101133.91
2022-09-12T15:26:03.477Z,101136.75
2022-09-12T15:28:33.535Z,101112.91
2022-09-12T15:31:09.463Z,101132.72
2022-09-12T15:33:37.733Z,101131.63
2022-09-12T15:36:14.017Z,101132.13
2022-09-12T15:38:42.403Z,101127.69
2022-09-12T15:41:18.111Z,101119.72
2022-09-12T15:43:47.078Z,101135.59
2022-09-12T15:46:19.058Z,101130.59
2022-09-12T15:48:47.760Z,101120.13
2022-09-12T15:51:18.675Z,101092.22
2022-09-12T15:53:48.471Z,101108.84
2022-09-12T15:56:19.779Z,101105.56
2022-09-12T15:58:58.365Z,101108.50
2022-09-12T16:01:28.358Z,101087.53
2022-09-12T16:03:56.995Z,101086.88
2022-09-12T16:06:25.315Z,101080.88
2022-09-12T16:08:53.573Z,101074.63
2022-09-12T16:11:26.087Z,101063.81
2022-09-12T16:13:56.651Z,101060.69
2022-09-12T16:16:24.817Z,101051.78
2022-09-12T16:18:53.348Z,101039.28
2022-09-12T16:21:21.570Z,101039.38
2022-09-12T16:23:50.382Z,101045.56
2022-09-12T16:26:19.361Z,101031.47
2022-09-12T16:28:49.179Z,101033.94
2022-09-12T16:31:17.732Z,101049.16
2022-09-12T16:33:46.052Z,101047.53
2022-09-12T16:36:16.862Z,101051.66
2022-09-12T16:38:46.855Z,101052.97
2022-09-12T16:41:17.198Z,101049.28
2022-09-12T16:43:46.049Z,101045.59
2022-09-12T16:46:19.000Z,101037.31
2022-09-12T16:48:52.507Z,101018.31
2022-09-12T16:51:24.894Z,101034.91
2022-09-12T16:53:53.664Z,101028.28
2022-09-12T16:56:22.309Z,101025.91
2022-09-12T16:58:50.986Z,101018.19
2022-09-12T17:01:23.364Z,101017.78
2022-09-12T17:03:54.846Z,101020.59
2022-09-12T17:06:23.402Z,101005.00
2022-09-12T17:08:54.072Z,101018.34
2022-09-12T17:11:26.427Z,101006.56
2022-09-12T17:14:06.227Z,101018.06
2022-09-12T17:16:39.155Z,101019.06
2022-09-12T17:19:08.792Z,101028.94
2022-09-12T17:21:37.140Z,101022.75
2022-09-12T17:24:06.073Z,101018.19
2022-09-12T17:26:34.538Z,101017.44
2022-09-12T17:29:03.128Z,101018.34
2022-09-12T17:31:32.069Z,101024.69
2022-09-12T17:34:03.143Z,101025.34
2022-09-12T17:36:32.533Z,100996.63
2022-09-12T17:39:02.250Z,101027.28
2022-09-12T17:41:32.834Z,101028.28
2022-09-12T17:44:02.617Z,101026.06
2022-09-12T17:46:35.023Z,101025.06
2022-09-12T17:49:07.659Z,101029.84
2022-09-12T17:51:36.445Z,101030.91
2022-09-12T17:54:08.252Z,101024.06
2022-09-12T17:56:38.026Z,101034.03
2022-09-12T17:59:08.303Z,101022.75
2022-09-12T18:01:54.464Z,101020.22
2022-09-12T18:04:24.242Z,101024.22
2022-09-12T18:06:52.814Z,101025.53
2022-09-12T18:09:23.361Z,101026.59
2022-09-12T18:11:52.036Z,101001.47
2022-09-12T18:14:20.726Z,101016.25
2022-09-12T18:16:49.604Z,101006.72
2022-09-12T18:19:18.740Z,100979.50
2022-09-12T18:21:48.329Z,100991.44
2022-09-12T18:24:16.827Z,100993.00
2022-09-12T18:26:45.123Z,100974.84
2022-09-12T18:29:16.781Z,100974.84
2022-09-12T18:31:46.728Z,100960.06
2022-09-12T18:34:15.858Z,100972.47
2022-09-12T18:36:46.402Z,100976.84
2022-09-12T18:39:16.226Z,100973.66
2022-09-12T18:41:45.077Z,100975.13
2022-09-12T18:44:13.896Z,100955.72
2022-09-12T18:46:42.290Z,100977.06
2022-09-12T18:49:10.746Z,100970.97
2022-09-12T18:51:41.937Z,100988.75
2022-09-12T18:54:15.577Z,101001.91
2022-09-12T18:56:45.604Z,100994.97
2022-09-12T18:59:14.949Z,100994.59
2022-09-12T19:01:44.304Z,100970.97
2022-09-12T19:04:15.050Z,100996.41
2022-09-12T19:06:46.002Z,100996.13
2022-09-12T19:09:20.579Z,100983.94
2022-09-12T19:11:52.607Z,101013.13
2022-09-12T19:14:24.874Z,101013.91
2022-09-12T19:16:53.788Z,101017.78
2022-09-12T19:19:23.257Z,101011.97
2022-09-12T19:21:51.644Z,101005.91
2022-09-12T19:24:21.860Z,100988.47
2022-09-12T19:26:50.933Z,100959.28
2022-09-12T19:29:19.525Z,100994.75
2022-09-12T19:31:47.891Z,100986.16
2022-09-12T19:34:16.562Z,100969.69
2022-09-12T19:36:46.602Z,100995.59
2022-09-12T19:39:16.143Z,100991.78
2022-09-12T19:41:46.371Z,100978.31
2022-09-12T19:44:14.941Z,100967.75
2022-09-12T19:46:43.467Z,100972.47
2022-09-12T19:49:13.253Z,100964.13
2022-09-12T19:51:42.005Z,100966.91
2022-09-12T19:54:10.574Z,100963.53
2022-09-12T19:56:38.845Z,100971.53
2022-09-12T19:59:08.670Z,100974.44
2022-09-12T20:01:37.771Z,100976.78
2022-09-12T20:04:06.871Z,100950.81
2022-09-12T20:06:35.801Z,100949.63
2022-09-12T20:09:04.570Z,100951.53
2022-09-12T20:11:32.960Z,100971.19
2022-09-12T20:14:01.338Z,100970.38
2022-09-12T20:16:33.566Z,100996.00
2022-09-12T20:19:06.087Z,100985.28
2022-09-12T20:21:36.272Z,100981.78
2022-09-12T20:24:07.113Z,100976.47
2022-09-12T20:26:35.834Z,100974.72
2022-09-12T20:29:04.887Z,100972.13
2022-09-12T20:31:35.256Z,100873.00
2022-09-12T20:34:03.940Z,100964.63
2022-09-12T20:36:32.238Z,100964.19
2022-09-12T20:39:02.526Z,100957.22
2022-09-12T20:41:33.327Z,100952.16
2022-09-12T20:44:01.637Z,100960.44
2022-09-12T20:46:30.413Z,100960.44
2022-09-12T20:49:00.562Z,100936.63
2022-09-12T20:51:30.336Z,100966.44
2022-09-12T20:54:00.035Z,100965.22
2022-09-12T20:56:29.743Z,100968.38
2022-09-12T20:58:58.820Z,100956.44
2022-09-12T21:01:29.189Z,100949.09
2022-09-12T21:03:58.866Z,100951.00
2022-09-12T21:06:28.773Z,100960.59
2022-09-12T21:09:00.539Z,100931.22
2022-09-12T21:11:29.903Z,100947.53
2022-09-12T21:13:58.904Z,100947.28
2022-09-12T21:16:27.479Z,100954.94
2022-09-12T21:18:57.509Z,100952.84
2022-09-12T21:21:27.895Z,100884.94
2022-09-12T21:23:59.887Z,100971.75
2022-09-12T21:26:28.382Z,100972.88
2022-09-12T21:28:56.618Z,100973.53
2022-09-12T21:31:25.869Z,100983.16
2022-09-12T21:33:54.303Z,100977.50
2022-09-12T21:36:22.533Z,100981.88
2022-09-12T21:38:52.046Z,100985.53
2022-09-12T21:41:20.295Z,100985.38
2022-09-12T21:43:48.578Z,100980.22
2022-09-12T21:46:17.013Z,100984.25
2022-09-12T21:48:45.310Z,100972.66
2022-09-12T21:51:13.538Z,100978.03
2022-09-12T21:53:42.492Z,100979.19
2022-09-12T21:56:12.170Z,100899.41
2022-09-12T21:58:40.434Z,100965.31
2022-09-12T22:01:09.690Z,100963.06
2022-09-12T22:03:37.960Z,100955.03
2022-09-12T22:06:07.997Z,100957.81
2022-09-12T22:08:38.836Z,100961.19
2022-09-12T22:11:10.917Z,100945.00
2022-09-12T22:13:43.344Z,100947.63
2022-09-12T22:16:12.665Z,100946.31
2022-09-12T22:18:41.234Z,100936.84
2022-09-12T22:21:13.334Z,100941.97
2022-09-12T22:23:59.281Z,100924.94
2022-09-12T22:26:29.222Z,100936.47
2022-09-12T22:28:57.604Z,100927.63
2022-09-12T22:31:26.929Z,100931.28
2022-09-12T22:33:57.035Z,100929.19
2022-09-12T22:36:30.455Z,100921.44
2022-09-12T22:38:59.697Z,100918.75
2022-09-12T22:41:29.446Z,100915.06
2022-09-12T22:43:58.604Z,100907.94
2022-09-12T22:46:27.490Z,100902.56
2022-09-12T22:48:55.961Z,100913.94
2022-09-12T22:51:24.633Z,100909.34
2022-09-12T22:53:53.768Z,100908.13
2022-09-12T22:56:22.500Z,100905.22
2022-09-12T22:58:52.392Z,100906.78
2022-09-12T23:01:20.906Z,100901.38
2022-09-12T23:03:49.209Z,100905.47
2022-09-12T23:06:18.964Z,100889.00
2022-09-12T23:08:47.269Z,100908.34
2022-09-12T23:11:19.032Z,100901.88
2022-09-12T23:13:49.632Z,100899.03
2022-09-12T23:16:20.580Z,100900.31
2022-09-12T23:18:49.445Z,100891.44
2022-09-12T23:21:21.175Z,100893.19
2022-09-12T23:23:49.868Z,100893.38
2022-09-12T23:26:20.248Z,100894.69
2022-09-12T23:28:50.674Z,100886.06
2022-09-12T23:31:20.788Z,100878.66
2022-09-12T23:33:49.503Z,100892.59
2022-09-12T23:36:18.001Z,100896.97
2022-09-12T23:38:48.072Z,100867.84
2022-09-12T23:41:17.967Z,100883.91
2022-09-12T23:43:47.041Z,100880.22
2022-09-12T23:46:17.221Z,100875.13
2022-09-12T23:48:46.853Z,100876.66
2022-09-12T23:51:15.551Z,100861.75
2022-09-12T23:53:44.079Z,100850.09
2022-09-12T23:56:12.538Z,100874.47
2022-09-12T23:58:40.757Z,100862.91
